createdAt,value
2023-06-16T00:00:22.214Z,64.40
2023-06-16T00:03:09.505Z,64.20
2023-06-16T00:05:58.650Z,64.30
2023-06-16T00:08:47.394Z,64.50
2023-06-16T00:11:35.529Z,64.40
2023-06-16T00:14:22.705Z,64.50
2023-06-16T00:17:13.823Z,64.80
2023-06-16T00:20:00.944Z,65.00
2023-06-16T00:22:49.719Z,65.80
2023-06-16T00:25:36.915Z,66.40
2023-06-16T00:28:25.060Z,66.60
2023-06-16T00:31:12.303Z,66.50
2023-06-16T00:34:02.232Z,66.60
2023-06-16T00:36:49.366Z,67.10
2023-06-16T00:39:37.905Z,67.10
2023-06-16T00:42:26.063Z,67.80
2023-06-16T00:45:14.169Z,68.50
2023-06-16T00:48:02.309Z,68.20
2023-06-16T00:50:51.308Z,68.00
2023-06-16T00:53:39.979Z,68.10
2023-06-16T00:56:28.624Z,68.80
2023-06-16T00:59:15.896Z,68.60
2023-06-16T01:02:05.068Z,68.60
2023-06-16T01:04:52.877Z,68.60
2023-06-16T01:07:51.459Z,68.60
2023-06-16T01:10:47.030Z,68.80
2023-06-16T01:13:43.361Z,69.20
2023-06-16T01:16:32.957Z,69.20
2023-06-16T01:19:29.220Z,69.10
2023-06-16T01:22:32.750Z,69.30
2023-06-16T01:25:23.767Z,69.70
2023-06-16T01:28:14.573Z,69.60
2023-06-16T01:31:03.107Z,69.80
2023-06-16T01:33:51.959Z,70.10
2023-06-16T01:36:42.617Z,70.10
2023-06-16T01:39:32.114Z,69.50
2023-06-16T01:42:23.955Z,69.60
2023-06-16T01:45:12.760Z,70.10
2023-06-16T01:48:00.892Z,70.10
2023-06-16T01:50:49.762Z,70.00
2023-06-16T01:53:37.834Z,70.10
2023-06-16T01:56:27.118Z,70.20
2023-06-16T01:59:15.758Z,69.90
2023-06-16T02:02:10.944Z,70.10
2023-06-16T02:05:04.198Z,70.20
2023-06-16T02:07:55.936Z,70.30
2023-06-16T02:10:43.698Z,70.60
2023-06-16T02:13:32.028Z,71.40
2023-06-16T02:16:21.688Z,71.70
2023-06-16T02:19:11.339Z,71.80
2023-06-16T02:21:59.414Z,71.80
2023-06-16T02:24:48.249Z,71.90
2023-06-16T02:27:36.126Z,72.20
2023-06-16T02:30:23.303Z,72.40
2023-06-16T02:33:14.346Z,72.30
2023-06-16T02:36:02.144Z,72.30
2023-06-16T02:38:50.310Z,72.30
2023-06-16T02:41:37.916Z,72.20
2023-06-16T02:44:26.266Z,71.90
2023-06-16T02:47:13.597Z,71.90
2023-06-16T02:50:03.372Z,72.10
2023-06-16T02:52:53.006Z,72.20
2023-06-16T02:55:41.679Z,72.40
2023-06-16T02:58:28.829Z,72.40
2023-06-16T03:01:17.271Z,73.20
2023-06-16T03:04:25.510Z,73.30
2023-06-16T03:07:32.855Z,73.50
2023-06-16T03:10:24.581Z,74.00
2023-06-16T03:13:24.162Z,73.90
2023-06-16T03:16:13.200Z,73.60
2023-06-16T03:19:02.372Z,74.00
2023-06-16T03:21:52.680Z,73.50
2023-06-16T03:24:52.169Z,73.80
2023-06-16T03:27:42.020Z,73.70
2023-06-16T03:30:30.170Z,74.10
2023-06-16T03:33:33.258Z,74.10
2023-06-16T03:36:21.171Z,74.60
2023-06-16T03:39:09.507Z,75.00
2023-06-16T03:42:00.746Z,74.70
2023-06-16T03:44:48.131Z,74.60
2023-06-16T03:47:36.428Z,74.70
2023-06-16T03:50:23.830Z,75.00
2023-06-16T03:53:16.691Z,75.30
2023-06-16T03:56:06.327Z,75.90
2023-06-16T03:58:57.957Z,76.60
2023-06-16T04:01:47.768Z,77.00
2023-06-16T04:04:36.344Z,77.50
2023-06-16T04:07:25.540Z,77.40
2023-06-16T04:10:13.942Z,77.60
2023-06-16T04:13:01.714Z,77.20
2023-06-16T04:15:54.805Z,77.10
2023-06-16T04:18:42.288Z,77.00
2023-06-16T04:21:30.468Z,76.80
2023-06-16T04:24:19.377Z,76.60
2023-06-16T04:27:09.673Z,76.90
2023-06-16T04:29:58.808Z,77.00
2023-06-16T04:32:50.750Z,76.70
2023-06-16T04:35:41.214Z,76.10
2023-06-16T04:38:28.604Z,76.20
2023-06-16T04:41:18.193Z,76.30
2023-06-16T04:44:06.253Z,76.10
2023-06-16T04:46:54.005Z,75.80
2023-06-16T04:49:43.760Z,75.30
2023-06-16T04:52:31.883Z,75.10
2023-06-16T04:55:20.224Z,75.00
2023-06-16T04:58:07.685Z,74.40
2023-06-16T05:00:55.814Z,73.80
2023-06-16T05:03:44.052Z,73.70
2023-06-16T05:06:37.056Z,74.30
2023-06-16T05:09:24.723Z,72.70
2023-06-16T05:12:12.513Z,72.30
2023-06-16T05:15:00.712Z,71.70
2023-06-16T05:17:50.800Z,71.00
2023-06-16T05:20:38.276Z,70.90
2023-06-16T05:23:28.013Z,71.10
2023-06-16T05:26:15.151Z,71.00
2023-06-16T05:29:03.321Z,71.00
2023-06-16T05:31:50.451Z,70.70
2023-06-16T05:34:39.530Z,72.00
2023-06-16T05:37:27.497Z,67.40
2023-06-16T05:40:16.164Z,67.60
2023-06-16T05:43:04.931Z,65.80
2023-06-16T05:45:55.590Z,65.90
2023-06-16T05:48:45.246Z,63.30
2023-06-16T05:51:33.961Z,60.50
2023-06-16T05:54:21.799Z,57.80
2023-06-16T05:57:10.388Z,55.90
2023-06-16T05:59:59.187Z,54.20
2023-06-16T06:02:46.371Z,51.00
2023-06-16T06:05:49.198Z,52.40
2023-06-16T06:08:37.149Z,55.70
2023-06-16T06:11:27.531Z,53.00
2023-06-16T06:14:16.598Z,50.60
2023-06-16T06:17:05.275Z,49.90
2023-06-16T06:19:53.206Z,49.70
2023-06-16T06:22:41.446Z,49.40
2023-06-16T06:25:30.435Z,48.30
2023-06-16T06:28:18.619Z,47.70
2023-06-16T06:31:07.157Z,47.50
2023-06-16T06:33:55.344Z,47.00
2023-06-16T06:36:44.256Z,47.00
2023-06-16T06:39:32.517Z,47.00
2023-06-16T06:42:19.628Z,46.90
2023-06-16T06:45:14.954Z,46.10
2023-06-16T06:48:03.729Z,45.70
2023-06-16T06:50:51.636Z,45.30
2023-06-16T06:53:39.283Z,45.70
2023-06-16T06:56:26.884Z,45.50
2023-06-16T06:59:15.108Z,45.30
2023-06-16T07:02:03.112Z,45.10
2023-06-16T07:04:52.121Z,45.00
2023-06-16T07:07:40.325Z,44.60
2023-06-16T07:10:27.984Z,45.10
2023-06-16T07:13:16.299Z,45.00
2023-06-16T07:16:05.137Z,44.80
2023-06-16T07:18:52.832Z,43.70
2023-06-16T07:21:41.337Z,44.60
2023-06-16T07:24:29.125Z,44.50
2023-06-16T07:27:16.589Z,44.50
2023-06-16T07:30:06.015Z,44.90
2023-06-16T07:32:53.804Z,44.30
2023-06-16T07:35:40.953Z,44.20
2023-06-16T07:38:30.584Z,43.60
2023-06-16T07:41:18.072Z,43.50
2023-06-16T07:44:06.819Z,43.90
2023-06-16T07:46:53.997Z,43.10
2023-06-16T07:49:42.113Z,42.70
2023-06-16T07:52:29.214Z,42.50
2023-06-16T07:55:18.994Z,42.60
2023-06-16T07:58:06.387Z,42.20
2023-06-16T08:00:54.514Z,42.00
2023-06-16T08:03:47.294Z,41.70
2023-06-16T08:06:35.586Z,41.60
2023-06-16T08:09:22.723Z,41.40
2023-06-16T08:12:12.644Z,41.60
2023-06-16T08:14:59.935Z,41.30
2023-06-16T08:17:48.091Z,40.90
2023-06-16T08:20:36.327Z,41.20
2023-06-16T08:23:24.678Z,40.70
2023-06-16T08:26:12.213Z,41.40
2023-06-16T08:29:01.773Z,41.00
2023-06-16T08:31:49.553Z,40.40
2023-06-16T08:34:38.040Z,40.60
2023-06-16T08:37:30.492Z,39.60
2023-06-16T08:40:19.627Z,39.90
2023-06-16T08:43:10.162Z,39.70
2023-06-16T08:46:00.458Z,40.20
2023-06-16T08:48:48.499Z,39.50
2023-06-16T08:51:38.207Z,40.80
2023-06-16T08:54:26.805Z,38.60
2023-06-16T08:57:15.650Z,39.70
2023-06-16T09:00:03.613Z,39.70
2023-06-16T09:02:57.247Z,39.50
2023-06-16T09:05:44.937Z,39.60
2023-06-16T09:08:32.512Z,41.40
2023-06-16T09:11:23.394Z,43.40
2023-06-16T09:14:12.210Z,42.60
2023-06-16T09:17:02.897Z,43.80
2023-06-16T09:19:53.576Z,43.60
2023-06-16T09:22:41.047Z,43.50
2023-06-16T09:25:32.307Z,43.10
2023-06-16T09:28:20.422Z,44.10
2023-06-16T09:31:13.275Z,44.10
2023-06-16T09:34:08.499Z,42.70
2023-06-16T09:36:58.003Z,39.10
2023-06-16T09:39:45.989Z,39.70
2023-06-16T09:42:34.515Z,38.40
2023-06-16T09:45:21.640Z,39.50
2023-06-16T09:48:12.215Z,39.90
2023-06-16T09:51:00.423Z,41.80
2023-06-16T09:53:49.948Z,42.20
2023-06-16T09:56:38.520Z,43.60
2023-06-16T09:59:27.282Z,40.20
2023-06-16T10:02:15.547Z,40.10
2023-06-16T10:05:07.996Z,40.90
2023-06-16T10:07:58.640Z,42.40
2023-06-16T10:10:53.141Z,42.20
2023-06-16T10:13:44.852Z,42.50
2023-06-16T10:16:33.156Z,43.20
2023-06-16T10:19:23.085Z,41.20
2023-06-16T10:22:12.949Z,41.50
2023-06-16T10:25:01.554Z,43.10
2023-06-16T10:27:51.861Z,41.50
2023-06-16T10:30:41.382Z,40.30
2023-06-16T10:33:29.804Z,39.40
2023-06-16T10:36:22.320Z,38.70
2023-06-16T10:39:13.284Z,37.00
2023-06-16T10:42:01.551Z,37.10
2023-06-16T10:44:51.381Z,36.40
2023-06-16T10:47:39.175Z,36.20
2023-06-16T10:50:40.925Z,35.60
2023-06-16T10:53:30.150Z,35.30
2023-06-16T10:56:17.774Z,35.10
2023-06-16T10:59:16.524Z,34.40
2023-06-16T11:02:18.608Z,33.90
2023-06-16T11:05:13.165Z,33.00
2023-06-16T11:08:14.483Z,34.50
2023-06-16T11:11:06.631Z,35.80
2023-06-16T11:13:54.448Z,36.50
2023-06-16T11:16:41.676Z,37.10
2023-06-16T11:19:30.175Z,36.50
2023-06-16T11:22:17.308Z,36.50
2023-06-16T11:25:06.333Z,34.70
2023-06-16T11:27:54.032Z,34.60
2023-06-16T11:30:42.090Z,34.60
2023-06-16T11:33:31.825Z,34.70
2023-06-16T11:36:22.408Z,33.90
2023-06-16T11:39:12.603Z,32.70
2023-06-16T11:42:02.444Z,32.40
2023-06-16T11:44:55.208Z,31.50
2023-06-16T11:47:43.467Z,32.20
2023-06-16T11:50:31.232Z,32.10
2023-06-16T11:53:21.018Z,32.50
2023-06-16T11:56:10.376Z,33.20
2023-06-16T11:59:04.912Z,32.80
2023-06-16T12:01:52.220Z,35.00
2023-06-16T12:04:40.312Z,34.90
2023-06-16T12:07:27.802Z,36.10
2023-06-16T12:10:21.175Z,34.80
2023-06-16T12:13:09.474Z,33.60
2023-06-16T12:15:58.937Z,33.80
2023-06-16T12:18:48.970Z,32.90
2023-06-16T12:21:36.587Z,33.70
2023-06-16T12:24:23.910Z,35.00
2023-06-16T12:27:25.602Z,35.70
2023-06-16T12:30:16.028Z,36.50
2023-06-16T12:33:10.592Z,37.10
2023-06-16T12:36:09.469Z,38.00
2023-06-16T12:38:58.720Z,36.40
2023-06-16T12:41:57.541Z,35.80
2023-06-16T12:44:48.115Z,33.90
2023-06-16T12:47:36.503Z,35.60
2023-06-16T12:50:24.668Z,35.00
2023-06-16T12:53:11.864Z,35.20
2023-06-16T12:55:59.951Z,35.30
2023-06-16T12:58:47.074Z,35.60
2023-06-16T13:01:36.578Z,35.30
2023-06-16T13:04:23.806Z,35.30
2023-06-16T13:07:11.684Z,36.00
2023-06-16T13:09:59.202Z,38.70
2023-06-16T13:12:46.429Z,37.70
2023-06-16T13:15:33.565Z,38.40
2023-06-16T13:18:22.549Z,37.60
2023-06-16T13:21:10.087Z,35.40
2023-06-16T13:23:58.188Z,33.00
2023-06-16T13:26:45.925Z,33.20
2023-06-16T13:29:33.672Z,33.10
2023-06-16T13:32:20.950Z,33.30
2023-06-16T13:35:11.228Z,33.40
2023-06-16T13:37:58.468Z,33.70
2023-06-16T13:40:46.193Z,34.30
2023-06-16T13:43:33.417Z,34.40
2023-06-16T13:46:21.910Z,33.90
2023-06-16T13:49:12.352Z,33.80
2023-06-16T13:52:02.587Z,32.00
2023-06-16T13:54:49.705Z,32.90
2023-06-16T13:57:37.994Z,34.30
2023-06-16T14:00:25.116Z,34.90
2023-06-16T14:03:13.453Z,33.70
2023-06-16T14:06:02.395Z,33.70
2023-06-16T14:08:52.762Z,34.30
2023-06-16T14:11:40.000Z,35.00
2023-06-16T14:14:29.020Z,35.50
2023-06-16T14:17:17.483Z,36.10
2023-06-16T14:20:05.898Z,35.30
2023-06-16T14:22:53.209Z,35.30
2023-06-16T14:25:46.832Z,34.80
2023-06-16T14:28:34.236Z,34.20
2023-06-16T14:31:22.384Z,34.40
2023-06-16T14:34:09.529Z,35.20
2023-06-16T14:36:57.299Z,35.00
2023-06-16T14:39:44.480Z,35.10
2023-06-16T14:42:34.752Z,35.70
2023-06-16T14:45:22.333Z,36.00
2023-06-16T14:48:10.204Z,36.10
2023-06-16T14:50:58.622Z,35.60
2023-06-16T14:53:46.665Z,36.10
2023-06-16T14:56:34.329Z,35.90
2023-06-16T14:59:23.354Z,36.50
2023-06-16T15:02:10.524Z,34.90
2023-06-16T15:04:57.684Z,35.30
2023-06-16T15:07:45.311Z,35.60
2023-06-16T15:10:32.746Z,35.90
2023-06-16T15:13:20.952Z,36.20
2023-06-16T15:16:09.691Z,37.40
2023-06-16T15:18:58.123Z,37.20
2023-06-16T15:21:45.351Z,36.20
2023-06-16T15:24:32.660Z,36.40
2023-06-16T15:27:20.883Z,36.70
2023-06-16T15:30:09.497Z,37.70
2023-06-16T15:32:58.975Z,36.80
2023-06-16T15:35:46.248Z,37.30
2023-06-16T15:38:33.752Z,38.40
2023-06-16T15:41:21.092Z,37.00
2023-06-16T15:44:11.044Z,36.60
2023-06-16T15:46:58.267Z,37.60
2023-06-16T15:49:46.676Z,37.70
2023-06-16T15:52:35.479Z,38.10
2023-06-16T15:55:23.485Z,38.90
2023-06-16T15:58:11.054Z,38.20
2023-06-16T16:00:58.285Z,38.20
2023-06-16T16:03:46.776Z,37.90
2023-06-16T16:06:35.453Z,36.60
2023-06-16T16:09:23.524Z,37.70
2023-06-16T16:12:11.501Z,38.00
2023-06-16T16:15:00.925Z,38.30
2023-06-16T16:17:48.638Z,39.30
2023-06-16T16:20:36.284Z,39.30
2023-06-16T16:23:24.855Z,37.80
2023-06-16T16:26:12.908Z,37.70
2023-06-16T16:29:00.551Z,38.10
2023-06-16T16:31:48.233Z,37.70
2023-06-16T16:34:36.012Z,37.90
2023-06-16T16:37:23.355Z,38.30
2023-06-16T16:40:13.634Z,38.20
2023-06-16T16:43:02.237Z,39.20
2023-06-16T16:45:50.748Z,39.10
2023-06-16T16:48:38.631Z,39.20
2023-06-16T16:51:26.456Z,39.00
2023-06-16T16:54:14.180Z,39.20
2023-06-16T16:57:03.753Z,39.90
2023-06-16T16:59:51.421Z,39.70
2023-06-16T17:02:39.129Z,39.40
2023-06-16T17:05:26.871Z,39.00
2023-06-16T17:08:14.229Z,39.50
2023-06-16T17:11:04.197Z,39.30
2023-06-16T17:13:52.994Z,38.80
2023-06-16T17:16:42.179Z,39.10
2023-06-16T17:19:30.054Z,39.50
2023-06-16T17:22:17.237Z,39.30
2023-06-16T17:25:06.680Z,39.30
2023-06-16T17:27:59.676Z,39.40
2023-06-16T17:30:49.681Z,40.00
2023-06-16T17:33:37.536Z,40.40
2023-06-16T17:36:25.230Z,40.10
2023-06-16T17:39:12.935Z,40.30
2023-06-16T17:42:00.139Z,40.90
2023-06-16T17:44:48.223Z,42.40
2023-06-16T17:47:36.858Z,44.20
2023-06-16T17:50:27.727Z,45.00
2023-06-16T17:53:15.950Z,45.30
2023-06-16T17:56:05.633Z,45.90
2023-06-16T17:58:52.833Z,45.80
2023-06-16T18:01:40.752Z,46.10
2023-06-16T18:04:29.180Z,46.60
2023-06-16T18:07:16.787Z,46.30
2023-06-16T18:10:06.397Z,46.80
2023-06-16T18:12:53.598Z,46.70
2023-06-16T18:15:41.376Z,47.10
2023-06-16T18:18:29.032Z,46.90
2023-06-16T18:21:18.550Z,47.10
2023-06-16T18:24:05.927Z,47.80
2023-06-16T18:26:54.163Z,48.20
2023-06-16T18:29:41.802Z,48.50
2023-06-16T18:32:28.967Z,48.60
2023-06-16T18:35:16.620Z,48.50
2023-06-16T18:38:05.625Z,49.10
2023-06-16T18:40:52.761Z,49.00
2023-06-16T18:43:40.534Z,49.30
2023-06-16T18:46:27.969Z,49.30
2023-06-16T18:49:16.128Z,49.50
2023-06-16T18:52:03.534Z,49.80
2023-06-16T18:54:52.606Z,50.20
2023-06-16T18:57:40.895Z,50.30
2023-06-16T19:00:28.077Z,50.70
2023-06-16T19:03:15.876Z,51.00
2023-06-16T19:06:03.717Z,50.90
2023-06-16T19:08:53.110Z,50.60
2023-06-16T19:11:41.668Z,50.50
2023-06-16T19:14:33.485Z,50.10
2023-06-16T19:17:21.489Z,50.60
2023-06-16T19:20:12.661Z,50.10
2023-06-16T19:22:59.922Z,50.00
2023-06-16T19:25:47.661Z,50.20
2023-06-16T19:28:47.457Z,50.00
2023-06-16T19:31:35.580Z,50.40
2023-06-16T19:34:22.908Z,50.30
2023-06-16T19:37:12.778Z,50.30
2023-06-16T19:40:00.783Z,50.50
2023-06-16T19:42:48.449Z,50.80
2023-06-16T19:45:37.130Z,51.10
2023-06-16T19:48:24.812Z,51.00
2023-06-16T19:51:12.146Z,51.00
2023-06-16T19:54:00.222Z,51.10
2023-06-16T19:56:47.464Z,51.60
2023-06-16T19:59:34.782Z,52.00
2023-06-16T20:02:24.866Z,52.30
2023-06-16T20:05:12.268Z,53.10
2023-06-16T20:07:59.412Z,54.70
2023-06-16T20:10:47.427Z,54.70
2023-06-16T20:13:34.572Z,55.40
2023-06-16T20:16:21.981Z,56.10
2023-06-16T20:19:10.924Z,57.60
2023-06-16T20:22:01.531Z,57.00
2023-06-16T20:24:49.129Z,58.10
2023-06-16T20:27:37.282Z,57.50
2023-06-16T20:30:24.968Z,59.40
2023-06-16T20:33:12.458Z,58.70
2023-06-16T20:36:01.179Z,58.40
2023-06-16T20:38:49.275Z,58.70
2023-06-16T20:41:36.576Z,61.60
2023-06-16T20:44:24.667Z,59.50
2023-06-16T20:47:11.852Z,59.40
2023-06-16T20:49:59.916Z,59.80
2023-06-16T20:52:49.964Z,61.10
2023-06-16T20:55:37.609Z,60.20
2023-06-16T20:58:25.388Z,60.20
2023-06-16T21:01:15.647Z,60.50
2023-06-16T21:04:05.132Z,60.90
2023-06-16T21:06:53.671Z,61.90
2023-06-16T21:09:42.791Z,60.80
2023-06-16T21:12:30.017Z,60.20
2023-06-16T21:15:21.382Z,60.70
2023-06-16T21:18:09.265Z,60.80
2023-06-16T21:20:56.496Z,60.60
2023-06-16T21:23:44.141Z,61.20
2023-06-16T21:26:32.607Z,61.40
2023-06-16T21:29:21.272Z,61.00
2023-06-16T21:32:08.491Z,61.50
2023-06-16T21:34:56.192Z,60.80
2023-06-16T21:37:43.364Z,60.90
2023-06-16T21:40:31.954Z,61.40
2023-06-16T21:43:20.475Z,61.00
2023-06-16T21:46:08.839Z,60.40
2023-06-16T21:48:56.105Z,60.40
2023-06-16T21:51:46.078Z,60.50
2023-06-16T21:54:33.277Z,60.00
2023-06-16T21:57:22.484Z,60.90
2023-06-16T22:00:13.504Z,60.70
2023-06-16T22:03:01.438Z,60.80
2023-06-16T22:05:48.851Z,59.80
2023-06-16T22:08:36.950Z,59.90
2023-06-16T22:11:24.384Z,60.20
2023-06-16T22:14:12.474Z,60.40
2023-06-16T22:17:01.544Z,60.40
2023-06-16T22:19:49.643Z,60.80
2023-06-16T22:22:37.330Z,61.20
2023-06-16T22:25:24.840Z,61.00
2023-06-16T22:28:13.602Z,61.20
2023-06-16T22:31:00.927Z,61.00
2023-06-16T22:33:50.366Z,61.20
2023-06-16T22:36:39.013Z,61.90
2023-06-16T22:39:26.914Z,61.80
2023-06-16T22:42:14.595Z,61.80
2023-06-16T22:45:01.761Z,61.80
2023-06-16T22:47:49.888Z,61.70
2023-06-16T22:50:39.873Z,62.10
2023-06-16T22:53:27.574Z,61.80
2023-06-16T22:56:16.266Z,62.10
2023-06-16T22:59:03.613Z,61.90
2023-06-16T23:01:51.325Z,62.20
2023-06-16T23:04:38.732Z,62.60
2023-06-16T23:07:28.259Z,62.60
2023-06-16T23:10:15.535Z,62.90
2023-06-16T23:13:03.827Z,62.90
2023-06-16T23:15:51.117Z,63.00
2023-06-16T23:18:39.326Z,63.10
2023-06-16T23:21:26.880Z,63.10
2023-06-16T23:24:18.757Z,63.20
2023-06-16T23:27:06.668Z,63.30
2023-06-16T23:29:54.853Z,63.40
2023-06-16T23:32:42.066Z,63.60
2023-06-16T23:35:30.233Z,63.90
2023-06-16T23:38:17.396Z,63.70
2023-06-16T23:41:07.667Z,63.90
2023-06-16T23:43:57.825Z,63.90
2023-06-16T23:46:46.265Z,64.10
2023-06-16T23:49:33.395Z,64.50
2023-06-16T23:52:21.672Z,64.60
2023-06-16T23:55:09.652Z,64.80
2023-06-16T23:57:59.475Z,64.70
